createdAt,value
2018-09-20T00:02:02.900Z,60.98
2018-09-20T00:04:30.465Z,60.54
2018-09-20T00:06:57.985Z,61.00
2018-09-20T00:09:25.546Z,61.21
2018-09-20T00:11:53.083Z,60.64
2018-09-20T00:14:20.618Z,60.41
2018-09-20T00:16:48.237Z,60.72
2018-09-20T00:19:15.884Z,60.67
2018-09-20T00:21:43.423Z,60.83
2018-09-20T00:24:11.004Z,61.04
2018-09-20T00:26:38.520Z,61.19
2018-09-20T00:29:06.123Z,61.31
2018-09-20T00:31:33.643Z,61.34
2018-09-20T00:34:01.185Z,61.27
2018-09-20T00:36:28.794Z,62.00
2018-09-20T00:38:56.361Z,61.58
2018-09-20T00:41:23.989Z,61.52
2018-09-20T00:43:51.522Z,61.26
2018-09-20T00:46:19.079Z,60.83
2018-09-20T00:48:46.800Z,61.44
2018-09-20T00:51:14.341Z,61.40
2018-09-20T00:53:41.847Z,62.08
2018-09-20T00:56:09.517Z,62.05
2018-09-20T00:58:37.039Z,61.90
2018-09-20T01:01:04.637Z,61.52
2018-09-20T01:03:32.193Z,61.37
2018-09-20T01:05:59.743Z,61.65
2018-09-20T01:08:27.283Z,61.73
2018-09-20T01:10:54.877Z,61.88
2018-09-20T01:13:22.433Z,61.30
2018-09-20T01:15:49.942Z,61.44
2018-09-20T01:18:17.512Z,61.81
2018-09-20T01:20:45.069Z,61.51
2018-09-20T01:23:12.781Z,62.12
2018-09-20T01:25:40.354Z,61.63
2018-09-20T01:28:07.894Z,61.77
2018-09-20T01:30:35.419Z,61.32
2018-09-20T01:33:02.978Z,61.56
2018-09-20T01:35:30.553Z,61.56
2018-09-20T01:37:58.100Z,61.41
2018-09-20T01:40:30.010Z,61.47
2018-09-20T01:42:57.585Z,61.25
2018-09-20T01:45:25.120Z,62.01
2018-09-20T01:47:56.295Z,62.36
2018-09-20T01:50:23.803Z,61.77
2018-09-20T01:52:51.344Z,62.00
2018-09-20T01:55:18.901Z,61.67
2018-09-20T01:57:46.423Z,61.96
2018-09-20T02:00:14.031Z,63.57
2018-09-20T02:02:41.601Z,62.55
2018-09-20T02:05:09.129Z,62.26
2018-09-20T02:07:36.731Z,62.25
2018-09-20T02:10:04.313Z,62.68
2018-09-20T02:12:31.876Z,62.27
2018-09-20T02:14:59.411Z,62.79
2018-09-20T02:17:27.008Z,62.87
2018-09-20T02:19:54.525Z,62.43
2018-09-20T02:22:22.252Z,62.86
2018-09-20T02:24:49.780Z,62.60
2018-09-20T02:27:17.472Z,62.13
2018-09-20T02:29:45.007Z,62.08
2018-09-20T02:32:12.547Z,62.46
2018-09-20T02:34:40.133Z,63.55
2018-09-20T02:37:07.724Z,63.40
2018-09-20T02:39:35.249Z,63.89
2018-09-20T02:42:02.834Z,65.01
2018-09-20T02:44:30.393Z,63.66
2018-09-20T02:46:57.967Z,64.31
2018-09-20T02:49:25.572Z,64.96
2018-09-20T02:51:53.102Z,63.94
2018-09-20T02:54:20.627Z,64.24
2018-09-20T02:56:48.202Z,64.00
2018-09-20T02:59:15.784Z,63.98
2018-09-20T03:01:43.295Z,63.75
2018-09-20T03:04:10.858Z,63.33
2018-09-20T03:06:38.416Z,64.25
2018-09-20T03:09:06.133Z,64.59
2018-09-20T03:11:33.647Z,64.77
2018-09-20T03:14:02.298Z,64.14
2018-09-20T03:16:29.835Z,63.87
2018-09-20T03:18:57.409Z,63.72
2018-09-20T03:21:24.962Z,63.96
2018-09-20T03:23:52.552Z,63.62
2018-09-20T03:26:20.183Z,64.22
2018-09-20T03:28:47.753Z,64.55
2018-09-20T03:31:15.321Z,64.06
2018-09-20T03:33:42.884Z,64.25
2018-09-20T03:36:10.411Z,63.96
2018-09-20T03:38:37.998Z,64.20
2018-09-20T03:41:05.581Z,64.71
2018-09-20T03:43:33.109Z,65.02
2018-09-20T03:46:00.671Z,64.96
2018-09-20T03:48:28.180Z,63.91
2018-09-20T03:50:55.748Z,65.02
2018-09-20T03:53:23.258Z,64.49
2018-09-20T03:55:50.795Z,64.29
2018-09-20T03:58:18.354Z,64.13
2018-09-20T04:00:46.112Z,63.56
2018-09-20T04:03:13.677Z,64.41
2018-09-20T04:05:41.209Z,65.02
2018-09-20T04:08:08.782Z,64.43
2018-09-20T04:10:36.696Z,66.35
2018-09-20T04:13:04.235Z,65.21
2018-09-20T04:15:31.791Z,65.39
2018-09-20T04:17:59.359Z,65.63
2018-09-20T04:20:26.924Z,65.58
2018-09-20T04:22:54.491Z,65.27
2018-09-20T04:25:22.061Z,64.96
2018-09-20T04:27:49.599Z,64.78
2018-09-20T04:30:17.223Z,65.58
2018-09-20T04:32:44.765Z,65.61
2018-09-20T04:35:12.280Z,65.72
2018-09-20T04:37:39.832Z,65.15
2018-09-20T04:40:07.356Z,65.96
2018-09-20T04:42:34.939Z,65.77
2018-09-20T04:45:02.490Z,65.81
2018-09-20T04:47:30.121Z,65.66
2018-09-20T04:49:57.816Z,65.49
2018-09-20T04:52:25.347Z,65.52
2018-09-20T04:54:53.038Z,65.35
2018-09-20T04:57:24.714Z,65.46
2018-09-20T04:59:52.348Z,65.14
2018-09-20T05:02:19.928Z,66.15
2018-09-20T05:04:47.494Z,66.19
2018-09-20T05:07:15.127Z,65.80
2018-09-20T05:09:42.695Z,66.04
2018-09-20T05:12:10.214Z,65.93
2018-09-20T05:14:37.807Z,65.37
2018-09-20T05:17:05.351Z,66.34
2018-09-20T05:19:32.953Z,65.94
2018-09-20T05:22:00.559Z,65.43
2018-09-20T05:24:28.086Z,64.92
2018-09-20T05:26:55.760Z,65.77
2018-09-20T05:29:23.304Z,66.13
2018-09-20T05:31:50.878Z,66.09
2018-09-20T05:34:22.292Z,65.63
2018-09-20T05:36:49.860Z,66.54
2018-09-20T05:39:17.442Z,65.38
2018-09-20T05:41:45.050Z,66.54
2018-09-20T05:44:12.603Z,66.36
2018-09-20T05:46:40.154Z,65.88
2018-09-20T05:49:07.890Z,65.84
2018-09-20T05:51:35.425Z,66.43
2018-09-20T05:54:02.980Z,65.59
2018-09-20T05:56:30.515Z,65.75
2018-09-20T05:58:58.081Z,66.67
2018-09-20T06:01:25.664Z,66.46
2018-09-20T06:03:53.219Z,67.06
2018-09-20T06:06:20.756Z,66.62
2018-09-20T06:08:48.333Z,67.84
2018-09-20T06:11:15.881Z,67.25
2018-09-20T06:13:43.479Z,67.47
2018-09-20T06:16:11.016Z,66.99
2018-09-20T06:18:38.536Z,66.79
2018-09-20T06:21:06.099Z,66.33
2018-09-20T06:23:33.637Z,66.09
2018-09-20T06:26:01.235Z,67.21
2018-09-20T06:28:28.822Z,66.76
2018-09-20T06:30:56.371Z,66.98
2018-09-20T06:33:23.898Z,67.01
2018-09-20T06:35:51.447Z,66.59
2018-09-20T06:38:19.240Z,67.03
2018-09-20T06:40:46.769Z,66.90
2018-09-20T06:43:14.281Z,67.05
2018-09-20T06:45:41.855Z,67.31
2018-09-20T06:48:09.373Z,67.07
2018-09-20T06:50:37.117Z,66.60
2018-09-20T06:53:04.638Z,66.63
2018-09-20T06:55:32.221Z,67.10
2018-09-20T06:57:59.727Z,66.30
2018-09-20T07:00:27.269Z,66.40
2018-09-20T07:02:54.933Z,65.99
2018-09-20T07:05:22.428Z,66.57
2018-09-20T07:07:50.012Z,67.14
2018-09-20T07:10:17.555Z,67.12
2018-09-20T07:15:18.823Z,66.61
2018-09-20T07:17:46.393Z,66.78
2018-09-20T07:20:13.968Z,66.45
2018-09-20T07:22:41.548Z,66.72
2018-09-20T07:25:09.084Z,66.69
2018-09-20T07:27:36.675Z,66.71
2018-09-20T07:30:04.198Z,66.40
2018-09-20T07:32:31.773Z,66.31
2018-09-20T07:34:59.301Z,66.38
2018-09-20T07:37:26.880Z,65.86
2018-09-20T07:39:54.411Z,65.84
2018-09-20T07:42:22.019Z,66.61
2018-09-20T07:44:49.771Z,65.64
2018-09-20T07:47:17.338Z,65.50
2018-09-20T07:49:44.860Z,65.53
2018-09-20T07:54:46.150Z,65.14
2018-09-20T07:57:13.710Z,65.01
2018-09-20T07:59:41.276Z,65.22
2018-09-20T08:02:08.863Z,64.94
2018-09-20T08:04:36.380Z,65.00
2018-09-20T08:07:03.979Z,65.18
2018-09-20T08:09:31.519Z,65.27
2018-09-20T08:11:59.089Z,65.35
2018-09-20T08:14:26.657Z,65.06
2018-09-20T08:16:54.177Z,65.14
2018-09-20T08:19:21.740Z,64.50
2018-09-20T08:21:49.304Z,64.67
2018-09-20T08:24:16.883Z,64.69
2018-09-20T08:26:44.394Z,64.16
2018-09-20T08:29:11.974Z,64.74
2018-09-20T08:31:39.540Z,64.31
2018-09-20T08:34:07.127Z,64.26
2018-09-20T08:36:35.480Z,63.60
2018-09-20T08:39:03.060Z,64.23
2018-09-20T08:41:30.644Z,63.90
2018-09-20T08:43:58.327Z,63.69
2018-09-20T08:46:25.903Z,63.87
2018-09-20T08:48:53.419Z,63.63
2018-09-20T08:51:20.990Z,63.39
2018-09-20T08:53:48.552Z,63.64
2018-09-20T08:56:16.277Z,63.54
2018-09-20T08:58:44.020Z,63.15
2018-09-20T09:01:11.570Z,63.20
2018-09-20T09:03:39.261Z,63.15
2018-09-20T09:06:06.790Z,62.80
2018-09-20T09:08:34.313Z,63.26
2018-09-20T09:11:01.908Z,62.30
2018-09-20T09:13:29.679Z,61.99
2018-09-20T09:15:57.248Z,62.17
2018-09-20T09:18:24.816Z,62.33
2018-09-20T09:20:52.356Z,62.03
2018-09-20T09:23:19.899Z,62.09
2018-09-20T09:25:47.470Z,61.77
2018-09-20T09:28:15.052Z,61.12
2018-09-20T09:30:42.636Z,61.93
2018-09-20T09:33:10.151Z,61.54
2018-09-20T09:35:37.690Z,61.04
2018-09-20T09:38:05.230Z,60.42
2018-09-20T09:40:33.676Z,60.98
2018-09-20T09:43:01.184Z,59.99
2018-09-20T09:45:28.761Z,59.70
2018-09-20T09:47:56.281Z,59.36
2018-09-20T09:50:23.817Z,59.29
2018-09-20T09:52:51.513Z,59.73
2018-09-20T09:55:19.112Z,59.08
2018-09-20T09:57:46.646Z,58.63
2018-09-20T10:00:14.199Z,58.92
2018-09-20T10:02:41.762Z,58.31
2018-09-20T10:05:09.327Z,57.54
2018-09-20T10:07:36.872Z,58.05
2018-09-20T10:10:04.638Z,58.14
2018-09-20T10:12:32.196Z,58.01
2018-09-20T10:14:59.807Z,57.97
2018-09-20T10:17:27.323Z,58.64
2018-09-20T10:19:54.904Z,57.44
2018-09-20T10:22:22.444Z,57.13
2018-09-20T10:24:50.006Z,57.18
2018-09-20T10:27:17.753Z,56.98
2018-09-20T10:29:45.303Z,56.75
2018-09-20T10:32:12.872Z,56.79
2018-09-20T10:34:40.392Z,57.00
2018-09-20T10:37:07.963Z,56.83
2018-09-20T10:39:35.489Z,56.38
2018-09-20T10:42:03.019Z,56.52
2018-09-20T10:44:30.602Z,56.42
2018-09-20T10:46:58.341Z,55.91
2018-09-20T10:49:25.927Z,55.67
2018-09-20T10:51:53.486Z,55.65
2018-09-20T10:54:21.009Z,55.95
2018-09-20T10:56:48.579Z,55.42
2018-09-20T10:59:16.156Z,55.62
2018-09-20T11:01:43.747Z,55.04
2018-09-20T11:04:11.256Z,54.82
2018-09-20T11:06:38.827Z,53.77
2018-09-20T11:09:06.381Z,54.38
2018-09-20T11:11:33.958Z,54.40
2018-09-20T11:14:01.518Z,54.31
2018-09-20T11:16:29.098Z,54.88
2018-09-20T11:18:56.617Z,54.88
2018-09-20T11:21:24.332Z,54.68
2018-09-20T11:23:51.842Z,54.64
2018-09-20T11:26:19.429Z,54.85
2018-09-20T11:28:47.015Z,53.95
2018-09-20T11:31:14.551Z,53.64
2018-09-20T11:33:42.123Z,53.51
2018-09-20T11:36:09.677Z,53.10
2018-09-20T11:38:37.230Z,52.58
2018-09-20T11:41:04.941Z,52.00
2018-09-20T11:43:32.453Z,52.18
2018-09-20T11:46:00.040Z,52.24
2018-09-20T11:48:27.579Z,52.06
2018-09-20T11:50:55.163Z,51.28
2018-09-20T11:53:22.748Z,51.43
2018-09-20T11:55:50.273Z,50.74
2018-09-20T11:58:17.845Z,51.89
2018-09-20T12:00:45.432Z,51.36
2018-09-20T12:03:13.013Z,49.15
2018-09-20T12:05:40.533Z,49.55
2018-09-20T12:08:08.175Z,49.05
2018-09-20T12:10:35.728Z,48.88
2018-09-20T12:13:03.308Z,48.79
2018-09-20T12:15:30.864Z,49.04
2018-09-20T12:17:58.463Z,48.71
2018-09-20T12:20:25.993Z,48.95
2018-09-20T12:22:53.578Z,49.03
2018-09-20T12:25:21.113Z,48.31
2018-09-20T12:27:48.799Z,48.24
2018-09-20T12:30:16.385Z,47.67
2018-09-20T12:32:44.020Z,47.96
2018-09-20T12:35:11.598Z,48.00
2018-09-20T12:37:39.168Z,47.88
2018-09-20T12:40:06.768Z,47.75
2018-09-20T12:42:34.349Z,47.84
2018-09-20T12:45:01.892Z,47.91
2018-09-20T12:47:29.453Z,47.39
2018-09-20T12:49:57.075Z,47.10
2018-09-20T12:52:24.656Z,46.55
2018-09-20T12:54:52.171Z,46.38
2018-09-20T12:57:19.701Z,47.05
2018-09-20T12:59:47.305Z,46.77
2018-09-20T13:02:14.880Z,46.90
2018-09-20T13:04:42.351Z,46.76
2018-09-20T13:07:09.995Z,46.11
2018-09-20T13:09:37.583Z,46.49
2018-09-20T13:12:05.105Z,46.50
2018-09-20T13:14:33.351Z,46.31
2018-09-20T13:17:00.909Z,46.25
2018-09-20T13:19:28.446Z,46.26
2018-09-20T13:21:56.005Z,45.85
2018-09-20T13:24:23.567Z,45.69
2018-09-20T13:26:51.134Z,45.61
2018-09-20T13:29:18.654Z,45.17
2018-09-20T13:31:46.235Z,45.48
2018-09-20T13:34:13.824Z,45.80
2018-09-20T13:36:41.360Z,45.47
2018-09-20T13:39:08.949Z,45.84
2018-09-20T13:41:36.480Z,45.53
2018-09-20T13:44:04.081Z,45.79
2018-09-20T13:46:31.815Z,45.99
2018-09-20T13:48:59.332Z,45.00
2018-09-20T13:51:26.934Z,46.02
2018-09-20T13:53:54.438Z,44.87
2018-09-20T13:56:22.013Z,45.38
2018-09-20T13:58:49.542Z,45.18
2018-09-20T14:01:17.123Z,45.29
2018-09-20T14:03:44.771Z,45.04
2018-09-20T14:06:12.363Z,45.47
2018-09-20T14:08:40.168Z,45.62
2018-09-20T14:11:07.670Z,45.17
2018-09-20T14:13:35.247Z,45.34
2018-09-20T14:16:02.772Z,45.56
2018-09-20T14:18:30.340Z,45.13
2018-09-20T14:21:01.517Z,45.57
2018-09-20T14:23:29.050Z,45.84
2018-09-20T14:25:56.685Z,45.82
2018-09-20T14:28:24.250Z,46.23
2018-09-20T14:30:51.808Z,45.78
2018-09-20T14:33:19.362Z,45.64
2018-09-20T14:35:46.904Z,45.70
2018-09-20T14:38:14.463Z,45.58
2018-09-20T14:40:41.987Z,45.40
2018-09-20T14:43:09.553Z,45.35
2018-09-20T14:45:37.267Z,44.98
2018-09-20T14:48:04.790Z,44.69
2018-09-20T14:50:33.361Z,44.42
2018-09-20T14:53:00.899Z,44.81
2018-09-20T14:55:28.455Z,44.89
2018-09-20T14:57:56.020Z,44.48
2018-09-20T15:00:23.532Z,43.95
2018-09-20T15:02:51.100Z,44.42
2018-09-20T15:05:18.741Z,44.76
2018-09-20T15:07:46.299Z,44.26
2018-09-20T15:10:13.855Z,44.50
2018-09-20T15:12:41.425Z,44.28
2018-09-20T15:15:09.020Z,44.40
2018-09-20T15:17:36.485Z,44.61
2018-09-20T15:20:04.041Z,44.72
2018-09-20T15:22:31.557Z,45.17
2018-09-20T15:24:59.121Z,44.11
2018-09-20T15:27:26.706Z,44.05
2018-09-20T15:29:54.255Z,43.23
2018-09-20T15:32:21.819Z,43.64
2018-09-20T15:34:49.492Z,43.02
2018-09-20T15:37:17.054Z,43.43
2018-09-20T15:39:44.646Z,43.50
2018-09-20T15:42:12.187Z,43.19
2018-09-20T15:44:39.743Z,42.86
2018-09-20T15:47:07.288Z,41.71
2018-09-20T15:49:34.861Z,41.49
2018-09-20T15:52:02.440Z,41.20
2018-09-20T15:54:30.022Z,41.84
2018-09-20T15:56:57.635Z,41.32
2018-09-20T15:59:25.213Z,42.28
2018-09-20T16:01:52.789Z,42.05
2018-09-20T16:04:20.375Z,41.03
2018-09-20T16:06:47.916Z,40.40
2018-09-20T16:09:15.450Z,40.25
2018-09-20T16:11:43.031Z,40.40
2018-09-20T16:14:10.793Z,40.42
2018-09-20T16:16:38.626Z,40.81
2018-09-20T16:19:06.628Z,40.58
2018-09-20T16:21:34.583Z,41.01
2018-09-20T16:24:02.227Z,41.26
2018-09-20T16:26:29.948Z,41.70
2018-09-20T16:29:01.148Z,41.05
2018-09-20T16:31:37.426Z,41.91
2018-09-20T16:34:06.802Z,41.24
2018-09-20T16:36:35.255Z,42.43
2018-09-20T16:39:03.435Z,41.38
2018-09-20T16:41:32.163Z,42.50
2018-09-20T16:44:00.279Z,42.51
2018-09-20T16:46:28.342Z,42.70
2018-09-20T16:48:56.296Z,42.80
2018-09-20T16:51:24.112Z,43.44
2018-09-20T16:53:51.972Z,43.68
2018-09-20T16:56:19.673Z,43.65
2018-09-20T16:58:48.046Z,44.30
2018-09-20T17:01:16.202Z,42.21
2018-09-20T17:03:44.089Z,42.69
2018-09-20T17:06:11.927Z,43.86
2018-09-20T17:08:41.771Z,43.29
2018-09-20T17:11:09.738Z,43.30
2018-09-20T17:13:38.046Z,44.61
2018-09-20T17:16:05.597Z,44.81
2018-09-20T17:18:33.892Z,44.24
2018-09-20T17:21:01.488Z,45.02
2018-09-20T17:23:29.213Z,44.33
2018-09-20T17:25:58.158Z,44.77
2018-09-20T17:28:26.024Z,45.14
2018-09-20T17:30:55.437Z,44.85
2018-09-20T17:33:24.772Z,45.06
2018-09-20T17:35:53.852Z,45.03
2018-09-20T17:38:22.285Z,45.08
2018-09-20T17:40:51.220Z,44.98
2018-09-20T17:43:21.270Z,45.02
2018-09-20T17:45:49.814Z,45.58
2018-09-20T17:48:31.394Z,45.36
2018-09-20T17:51:00.818Z,45.53
2018-09-20T18:15:27.239Z,47.46
2018-09-20T18:17:55.009Z,47.33
2018-09-20T18:20:22.860Z,47.01
2018-09-20T18:22:50.488Z,47.54
2018-09-20T18:25:18.067Z,47.33
2018-09-20T18:27:45.697Z,47.75
2018-09-20T18:30:13.574Z,48.08
2018-09-20T18:32:41.242Z,46.81
2018-09-20T18:35:09.073Z,47.10
2018-09-20T18:37:36.853Z,47.08
2018-09-20T18:40:05.449Z,47.49
2018-09-20T18:42:33.086Z,47.31
2018-09-20T18:45:00.582Z,47.70
2018-09-20T18:47:28.165Z,48.06
2018-09-20T18:49:55.696Z,47.47
2018-09-20T18:52:23.292Z,47.60
2018-09-20T18:54:51.004Z,48.11
2018-09-20T18:57:18.554Z,48.41
2018-09-20T18:59:46.091Z,47.91
2018-09-20T19:02:13.642Z,46.77
2018-09-20T19:04:41.215Z,46.87
2018-09-20T19:07:08.745Z,46.35
2018-09-20T19:09:36.310Z,46.94
2018-09-20T19:12:04.019Z,46.87
2018-09-20T19:14:31.590Z,46.76
2018-09-20T19:16:59.229Z,46.00
2018-09-20T19:19:27.017Z,46.35
2018-09-20T19:21:54.748Z,46.47
2018-09-20T19:24:22.616Z,45.99
2018-09-20T19:26:50.155Z,46.61
2018-09-20T19:29:17.711Z,46.21
2018-09-20T19:31:45.260Z,45.34
2018-09-20T19:34:12.853Z,45.45
2018-09-20T19:36:41.340Z,45.59
2018-09-20T19:39:08.906Z,45.08
2018-09-20T19:41:36.445Z,45.62
2018-09-20T19:44:04.008Z,45.09
2018-09-20T19:46:31.544Z,45.20
2018-09-20T19:48:59.135Z,45.77
2018-09-20T19:51:26.669Z,45.57
2018-09-20T19:53:54.222Z,45.50
2018-09-20T19:56:21.770Z,46.37
2018-09-20T19:58:49.356Z,45.97
2018-09-20T20:01:16.886Z,45.68
2018-09-20T20:03:44.478Z,46.86
2018-09-20T20:06:12.063Z,45.58
2018-09-20T20:08:39.648Z,46.61
2018-09-20T20:11:07.202Z,45.78
2018-09-20T20:13:34.764Z,46.53
2018-09-20T20:16:02.342Z,46.91
2018-09-20T20:18:29.845Z,47.10
2018-09-20T20:20:57.371Z,47.71
2018-09-20T20:23:24.970Z,46.34
2018-09-20T20:25:52.489Z,47.12
2018-09-20T20:28:20.071Z,47.90
2018-09-20T20:30:47.600Z,47.13
2018-09-20T20:33:15.138Z,47.09
2018-09-20T20:35:42.690Z,47.38
2018-09-20T20:38:10.307Z,47.57
2018-09-20T20:40:37.816Z,47.38
2018-09-20T20:43:05.382Z,47.37
2018-09-20T20:45:32.919Z,47.69
2018-09-20T20:48:00.533Z,47.96
2018-09-20T20:50:28.061Z,47.86
2018-09-20T20:52:55.678Z,47.85
2018-09-20T20:55:23.213Z,48.02
2018-09-20T20:57:50.771Z,48.12
2018-09-20T21:00:18.340Z,48.04
2018-09-20T21:02:46.072Z,48.31
2018-09-20T21:05:13.642Z,48.60
2018-09-20T21:07:41.173Z,48.62
2018-09-20T21:10:08.851Z,48.67
2018-09-20T21:12:36.362Z,48.45
2018-09-20T21:15:04.011Z,49.09
2018-09-20T21:17:31.549Z,49.39
2018-09-20T21:19:59.089Z,49.20
2018-09-20T21:22:26.656Z,49.34
2018-09-20T21:24:54.236Z,49.48
2018-09-20T21:27:21.806Z,49.80
2018-09-20T21:29:49.331Z,49.62
2018-09-20T21:32:16.920Z,49.79
2018-09-20T21:34:44.449Z,49.67
2018-09-20T21:37:12.078Z,49.98
2018-09-20T21:39:39.607Z,49.94
2018-09-20T21:42:07.122Z,50.13
2018-09-20T21:44:34.676Z,50.05
2018-09-20T21:47:02.188Z,50.23
2018-09-20T21:49:29.752Z,50.17
2018-09-20T21:51:57.405Z,50.54
2018-09-20T21:54:24.948Z,50.23
2018-09-20T21:56:52.504Z,50.19
2018-09-20T21:59:20.159Z,50.86
2018-09-20T22:01:47.673Z,50.49
2018-09-20T22:04:15.242Z,50.61
2018-09-20T22:06:42.811Z,50.14
2018-09-20T22:09:10.340Z,50.58
2018-09-20T22:11:37.884Z,50.54
2018-09-20T22:14:05.453Z,50.87
2018-09-20T22:16:33.036Z,50.65
2018-09-20T22:19:00.566Z,50.73
2018-09-20T22:21:32.787Z,50.94
2018-09-20T22:24:00.305Z,51.44
2018-09-20T22:26:27.868Z,51.13
2018-09-20T22:28:55.386Z,51.28
2018-09-20T22:31:24.088Z,51.20
2018-09-20T22:33:51.656Z,51.28
2018-09-20T22:36:19.208Z,51.42
2018-09-20T22:38:49.360Z,51.58
2018-09-20T22:41:16.942Z,51.81
2018-09-20T22:43:44.529Z,51.90
2018-09-20T22:46:12.050Z,51.86
2018-09-20T22:48:39.602Z,51.68
2018-09-20T22:51:07.169Z,51.73
2018-09-20T22:53:34.704Z,51.79
2018-09-20T22:56:02.512Z,51.83
2018-09-20T22:58:30.046Z,52.12
2018-09-20T23:00:57.653Z,51.94
2018-09-20T23:03:25.185Z,52.25
2018-09-20T23:05:52.721Z,52.26
2018-09-20T23:08:20.287Z,52.37
2018-09-20T23:10:47.810Z,52.31
2018-09-20T23:13:15.358Z,52.35
2018-09-20T23:15:42.877Z,52.70
2018-09-20T23:18:10.470Z,52.82
2018-09-20T23:20:37.983Z,53.11
2018-09-20T23:23:05.560Z,53.36
2018-09-20T23:25:33.096Z,53.18
2018-09-20T23:28:00.641Z,53.22
2018-09-20T23:30:29.334Z,53.50
2018-09-20T23:32:56.843Z,53.61
2018-09-20T23:35:24.550Z,53.40
2018-09-20T23:37:53.245Z,53.56
2018-09-20T23:40:20.830Z,53.30
2018-09-20T23:42:48.450Z,53.64
2018-09-20T23:45:16.221Z,53.97
2018-09-20T23:47:43.796Z,53.91
2018-09-20T23:50:11.443Z,54.04
2018-09-20T23:52:39.289Z,54.06
2018-09-20T23:55:09.143Z,53.81
2018-09-20T23:57:37.777Z,54.50
